Kan 2 — T2ZB4 — position and weather

sailwx.info

Track history (hours):
 
Tides and Currents Weather Stations Pressure Air Temp Water Temp Dewpoint Dewpoint Depression Visibility Wind Speed Wind Dir Waves Ship Positions

Kan 2

Last reported at 2017-Nov-25 07:29 UTC. Time now 2017-Nov-25 08:00 UTC.
Position N 45°27' E 012°15'.

Length 149 m; draft 5.7 m.

Type: Ship. MMSI: 572907000.

Date/timePositionNaut miles runAvg speedWind from/ knotsBaromVisibWave heightAir tempDewpointWater temp
2017-Nov-25 07:29N 45°27' E 012°15'0 0.0
2017-Nov-25 07:00N 45°27' E 012°15'2 3.3
2017-Nov-25 06:30N 45°26' E 012°16'4 7.6
2017-Nov-25 06:00N 45°22' E 012°15'5 9.0
2017-Nov-25 05:30N 45°20' E 012°21'2 3.4
2017-Nov-25 05:01N 45°19' E 012°23'3 5.7
2017-Nov-25 04:30N 45°22' E 012°26'0 0.6
2017-Nov-25 03:58N 45°22' E 012°25'0 0.0
2017-Nov-25 03:28N 45°22' E 012°25'0 0.0
2017-Nov-25 02:58N 45°22' E 012°25'0 0.0
2017-Nov-25 02:28N 45°22' E 012°25'0 0.0
2017-Nov-25 01:58N 45°22' E 012°25'0 0.0
2017-Nov-25 01:28N 45°22' E 012°25'0 0.0
2017-Nov-25 01:00N 45°22' E 012°25'0 0.0
2017-Nov-25 00:28N 45°22' E 012°25'0 0.0
2017-Nov-25 00:01N 45°22' E 012°25'0 0.0
2017-Nov-24 23:30N 45°22' E 012°25'0 0.0
2017-Nov-24 22:58N 45°22' E 012°25'0 0.0
2017-Nov-24 22:28N 45°22' E 012°25'0 0.0
2017-Nov-24 21:58N 45°22' E 012°25'0 0.0
2017-Nov-24 21:28N 45°22' E 012°25'0 0.0
2017-Nov-24 21:00N 45°22' E 012°25'0 0.0
2017-Nov-24 20:28N 45°22' E 012°25'0 0.0
2017-Nov-24 19:58N 45°22' E 012°25'0 0.0
2017-Nov-24 19:28N 45°22' E 012°25'0 0.1
2017-Nov-24 18:58N 45°22' E 012°25'0 0.1
2017-Nov-24 18:29N 45°22' E 012°25'2 4.1
2017-Nov-24 18:00N 45°21' E 012°27'510.1
2017-Nov-24 17:30N 45°17' E 012°32'612.1
2017-Nov-24 17:00N 45°13' E 012°39'612.1
2017-Nov-24 16:30N 45°09' E 012°46'611.8
2017-Nov-24 16:00N 45°04' E 012°50'612.4
2017-Nov-24 15:30N 44°59' E 012°53'612.7
2017-Nov-24 15:00N 44°53' E 012°57'612.5
2017-Nov-24 14:30N 44°47' E 012°60'612.5
2017-Nov-24 14:00N 44°41' E 013°03'612.4
2017-Nov-24 13:31N 44°35' E 013°06'612.4
2017-Nov-24 13:00N 44°29' E 013°09'612.2
2017-Nov-24 12:30N 44°24' E 013°12'612.3
2017-Nov-24 11:59N 44°18' E 013°15'612.3
2017-Nov-24 11:30N 44°14' E 013°21'  
2017-Nov-18 20:30N 44°28' E 037°26'612.5
2017-Nov-18 19:59N 44°31' E 037°34'612.8
2017-Nov-18 19:30N 44°34' E 037°42'612.2
2017-Nov-18 19:00N 44°37' E 037°49'4 8.0
2017-Nov-18 18:30N 44°41' E 037°49'3 5.7
2017-Nov-18 18:00N 44°44' E 037°48'0 0.1
2017-Nov-18 17:28N 44°44' E 037°48'0 0.0
2017-Nov-18 16:58N 44°44' E 037°48'0 0.0
2017-Nov-18 16:28N 44°44' E 037°48'0 0.0
2017-Nov-18 15:58N 44°44' E 037°48'0 0.0
2017-Nov-18 15:28N 44°44' E 037°48'0 0.0
2017-Nov-18 14:58N 44°44' E 037°48'0 0.0
2017-Nov-18 14:28N 44°44' E 037°48'0 0.0
2017-Nov-18 13:59N 44°44' E 037°48'0 0.0
2017-Nov-18 13:30N 44°44' E 037°48'0 0.0
2017-Nov-18 13:00N 44°44' E 037°48'0 0.0
2017-Nov-18 12:30N 44°44' E 037°48'0 0.0
2017-Nov-18 12:00N 44°44' E 037°48'0 0.0
2017-Nov-18 11:30N 44°44' E 037°48'0 0.0
2017-Nov-18 11:00N 44°44' E 037°48'0 0.0
2017-Nov-18 10:30N 44°44' E 037°48'0 0.0
2017-Nov-18 10:00N 44°44' E 037°48'0 0.0
2017-Nov-18 09:24N 44°44' E 037°48'0 0.0
2017-Nov-18 09:00N 44°44' E 037°48'0 0.0
2017-Nov-18 08:30N 44°44' E 037°48'0 0.0
2017-Nov-18 08:00N 44°44' E 037°48'0 0.0
2017-Nov-18 07:30N 44°44' E 037°48'0 0.0
2017-Nov-18 07:00N 44°44' E 037°48'0 0.0
2017-Nov-18 06:30N 44°44' E 037°48'0 0.0
2017-Nov-18 06:00N 44°44' E 037°48'0 0.0
2017-Nov-18 05:30N 44°44' E 037°48'0 0.0
2017-Nov-18 05:00N 44°44' E 037°48'0 0.0
2017-Nov-18 04:30N 44°44' E 037°48'0 0.0
2017-Nov-18 04:00N 44°44' E 037°48'0 0.0
2017-Nov-18 03:30N 44°44' E 037°48'0 0.0
2017-Nov-18 03:00N 44°44' E 037°48'0 0.0
2017-Nov-18 02:30N 44°44' E 037°48'0 0.0
2017-Nov-18 02:00N 44°44' E 037°48'0 0.0
2017-Nov-18 01:30N 44°44' E 037°48'0 0.0
2017-Nov-18 01:00N 44°44' E 037°48'0 0.0
2017-Nov-18 00:30N 44°44' E 037°48'0 0.0
2017-Nov-18 00:00N 44°44' E 037°48'0 0.0
2017-Nov-17 23:30N 44°44' E 037°48'0 0.0
2017-Nov-17 23:00N 44°44' E 037°48'0 0.0
2017-Nov-17 22:30N 44°44' E 037°48'0 0.0
2017-Nov-17 22:00N 44°44' E 037°48'0 0.0
2017-Nov-17 21:30N 44°44' E 037°48'0 0.0
2017-Nov-17 21:00N 44°44' E 037°48'0 0.0
2017-Nov-17 20:30N 44°44' E 037°48'0 0.0
2017-Nov-17 20:00N 44°44' E 037°48'0 0.0
2017-Nov-17 19:30N 44°44' E 037°48'0 0.0
2017-Nov-17 19:00N 44°44' E 037°48'0 0.0
2017-Nov-17 18:30N 44°44' E 037°48'0 0.0
2017-Nov-17 18:00N 44°44' E 037°48'0 0.0
2017-Nov-17 17:30N 44°44' E 037°48'0 0.0
2017-Nov-17 17:00N 44°44' E 037°48'0 0.0
2017-Nov-17 16:30N 44°44' E 037°48'0 0.0
2017-Nov-17 16:00N 44°44' E 037°48'0 0.0
2017-Nov-17 15:30N 44°44' E 037°48'0 0.0
2017-Nov-17 13:15N 44°44' E 037°48'0 0.0
2017-Nov-17 13:00N 44°44' E 037°48'0 0.0
2017-Nov-17 12:30N 44°44' E 037°48'0 0.1
2017-Nov-17 12:00N 44°44' E 037°48'0 0.0
2017-Nov-17 11:30N 44°44' E 037°48'0 0.0
2017-Nov-17 11:00N 44°44' E 037°48'0 0.0
2017-Nov-17 10:30N 44°44' E 037°48'0 0.0
2017-Nov-17 10:00N 44°44' E 037°48'0 0.0
2017-Nov-17 09:30N 44°44' E 037°48'0 0.0
2017-Nov-17 09:00N 44°44' E 037°48'0 0.0
2017-Nov-17 08:30N 44°44' E 037°48'0 0.0
2017-Nov-17 08:00N 44°44' E 037°48'0 0.0
2017-Nov-17 07:30N 44°44' E 037°48'0 0.0
2017-Nov-17 07:00N 44°44' E 037°48'0 0.0
2017-Nov-17 06:30N 44°44' E 037°48'0 0.0
2017-Nov-16 21:54N 44°44' E 037°48'0 0.0
2017-Nov-16 21:30N 44°44' E 037°48'0 0.0
2017-Nov-16 21:00N 44°44' E 037°48'0 0.0
2017-Nov-16 20:30N 44°44' E 037°48'0 0.0
2017-Nov-16 19:45N 44°44' E 037°48'0 0.0
2017-Nov-16 19:30N 44°44' E 037°48'0 0.0
2017-Nov-16 19:00N 44°44' E 037°48'0 0.0
2017-Nov-16 18:30N 44°44' E 037°48'0 0.0
2017-Nov-16 18:00N 44°44' E 037°48'0 0.0
2017-Nov-16 17:30N 44°44' E 037°48'0 0.0
2017-Nov-16 17:00N 44°44' E 037°48'0 0.0
2017-Nov-16 16:30N 44°44' E 037°48'0 0.0
2017-Nov-16 16:00N 44°44' E 037°48'0 0.0
2017-Nov-16 15:30N 44°44' E 037°48'0 0.0
2017-Nov-16 15:00N 44°44' E 037°48'0 0.0
2017-Nov-16 14:30N 44°44' E 037°48'0 0.0
2017-Nov-16 14:00N 44°44' E 037°48'0 0.0
2017-Nov-16 13:30N 44°44' E 037°48'0 0.0
2017-Nov-16 03:42N 44°44' E 037°48'0 0.0
2017-Nov-16 03:30N 44°44' E 037°48'0 0.0
2017-Nov-16 03:00N 44°44' E 037°48'0 0.0
2017-Nov-16 02:30N 44°44' E 037°48'0 0.0
2017-Nov-16 02:00N 44°44' E 037°48'0 0.0
2017-Nov-16 01:30N 44°44' E 037°48'0 0.0
2017-Nov-16 01:00N 44°44' E 037°48'0 0.0
2017-Nov-16 00:30N 44°44' E 037°48'0 0.0
2017-Nov-16 00:00N 44°44' E 037°48'0 0.0
2017-Nov-15 23:30N 44°44' E 037°48'0 0.0
2017-Nov-15 23:00N 44°44' E 037°48'0 0.0
2017-Nov-15 22:30N 44°44' E 037°48'0 0.0
2017-Nov-15 22:00N 44°44' E 037°48'0 0.0
2017-Nov-15 21:30N 44°44' E 037°48'0 0.0
2017-Nov-15 21:00N 44°44' E 037°48'0 0.0
2017-Nov-15 20:30N 44°44' E 037°48'0 0.0
2017-Nov-15 20:00N 44°44' E 037°48'0 0.0
2017-Nov-15 19:27N 44°44' E 037°48'0 0.0
2017-Nov-15 19:00N 44°44' E 037°48'0 0.0
2017-Nov-15 18:30N 44°44' E 037°48'0 0.0
2017-Nov-15 18:00N 44°44' E 037°48'0 0.0
2017-Nov-15 17:30N 44°44' E 037°48'0 0.0
2017-Nov-15 17:00N 44°44' E 037°48'0 0.0
2017-Nov-15 16:31N 44°44' E 037°48'1 1.9
2017-Nov-15 16:00N 44°43' E 037°48'2 4.7
2017-Nov-15 15:31N 44°41' E 037°50'2 3.8
2017-Nov-15 15:01N 44°39' E 037°51'8 7.7
2017-Nov-15 13:58N 44°31' E 037°48'1022.8
2017-Nov-15 13:31N 44°35' E 038°01'2141.8
2017-Nov-15 13:00N 44°22' E 037°38'3 5.7
2017-Nov-15 12:30N 44°20' E 037°35'0 0.1
2017-Nov-15 12:00N 44°20' E 037°35'0 0.3
2017-Nov-15 11:30N 44°20' E 037°35'0 0.2
2017-Nov-15 11:00N 44°21' E 037°35'0 0.9
2017-Nov-15 10:30N 44°21' E 037°35'0 0.9
2017-Nov-15 10:00N 44°21' E 037°35'0 0.9
2017-Nov-15 09:30N 44°22' E 037°36'0 0.9
2017-Nov-15 09:00N 44°22' E 037°36'1 1.2
2017-Nov-15 08:30N 44°23' E 037°36'1 1.2
2017-Nov-15 08:00N 44°23' E 037°37'1 1.1
2017-Nov-15 07:30N 44°24' E 037°37'  
Track history (hours):
 
Tides and Currents Weather Stations Pressure Air Temp Water Temp Dewpoint Dewpoint Depression Visibility Wind Speed Wind Dir Waves Ship Positions

Kan 2

Last reported at 2017-Nov-25 07:29 UTC. Time now 2017-Nov-25 08:00 UTC.
Position N 45°27' E 012°15'.

Length 149 m; draft 5.7 m.

Type: Ship. MMSI: 572907000.

Date/timePositionNaut miles runAvg speedWind from/ knotsBaromVisibWave heightAir tempDewpointWater temp
2017-Nov-25 07:29N 45°27' E 012°15'0 0.0
2017-Nov-25 07:00N 45°27' E 012°15'2 3.3
2017-Nov-25 06:30N 45°26' E 012°16'4 7.6
2017-Nov-25 06:00N 45°22' E 012°15'5 9.0
2017-Nov-25 05:30N 45°20' E 012°21'2 3.4
2017-Nov-25 05:01N 45°19' E 012°23'3 5.7
2017-Nov-25 04:30N 45°22' E 012°26'0 0.6
2017-Nov-25 03:58N 45°22' E 012°25'0 0.0
2017-Nov-25 03:28N 45°22' E 012°25'0 0.0
2017-Nov-25 02:58N 45°22' E 012°25'0 0.0
2017-Nov-25 02:28N 45°22' E 012°25'0 0.0
2017-Nov-25 01:58N 45°22' E 012°25'0 0.0
2017-Nov-25 01:28N 45°22' E 012°25'0 0.0
2017-Nov-25 01:00N 45°22' E 012°25'0 0.0
2017-Nov-25 00:28N 45°22' E 012°25'0 0.0
2017-Nov-25 00:01N 45°22' E 012°25'0 0.0
2017-Nov-24 23:30N 45°22' E 012°25'0 0.0
2017-Nov-24 22:58N 45°22' E 012°25'0 0.0
2017-Nov-24 22:28N 45°22' E 012°25'0 0.0
2017-Nov-24 21:58N 45°22' E 012°25'0 0.0
2017-Nov-24 21:28N 45°22' E 012°25'0 0.0
2017-Nov-24 21:00N 45°22' E 012°25'0 0.0
2017-Nov-24 20:28N 45°22' E 012°25'0 0.0
2017-Nov-24 19:58N 45°22' E 012°25'0 0.0
2017-Nov-24 19:28N 45°22' E 012°25'0 0.1
2017-Nov-24 18:58N 45°22' E 012°25'0 0.1
2017-Nov-24 18:29N 45°22' E 012°25'2 4.1
2017-Nov-24 18:00N 45°21' E 012°27'510.1
2017-Nov-24 17:30N 45°17' E 012°32'612.1
2017-Nov-24 17:00N 45°13' E 012°39'612.1
2017-Nov-24 16:30N 45°09' E 012°46'611.8
2017-Nov-24 16:00N 45°04' E 012°50'612.4
2017-Nov-24 15:30N 44°59' E 012°53'612.7
2017-Nov-24 15:00N 44°53' E 012°57'612.5
2017-Nov-24 14:30N 44°47' E 012°60'612.5
2017-Nov-24 14:00N 44°41' E 013°03'612.4
2017-Nov-24 13:31N 44°35' E 013°06'612.4
2017-Nov-24 13:00N 44°29' E 013°09'612.2
2017-Nov-24 12:30N 44°24' E 013°12'612.3
2017-Nov-24 11:59N 44°18' E 013°15'612.3
2017-Nov-24 11:30N 44°14' E 013°21'  
2017-Nov-18 20:30N 44°28' E 037°26'612.5
2017-Nov-18 19:59N 44°31' E 037°34'612.8
2017-Nov-18 19:30N 44°34' E 037°42'612.2
2017-Nov-18 19:00N 44°37' E 037°49'4 8.0
2017-Nov-18 18:30N 44°41' E 037°49'3 5.7
2017-Nov-18 18:00N 44°44' E 037°48'0 0.1
2017-Nov-18 17:28N 44°44' E 037°48'0 0.0
2017-Nov-18 16:58N 44°44' E 037°48'0 0.0
2017-Nov-18 16:28N 44°44' E 037°48'0 0.0
2017-Nov-18 15:58N 44°44' E 037°48'0 0.0
2017-Nov-18 15:28N 44°44' E 037°48'0 0.0
2017-Nov-18 14:58N 44°44' E 037°48'0 0.0
2017-Nov-18 14:28N 44°44' E 037°48'0 0.0
2017-Nov-18 13:59N 44°44' E 037°48'0 0.0
2017-Nov-18 13:30N 44°44' E 037°48'0 0.0
2017-Nov-18 13:00N 44°44' E 037°48'0 0.0
2017-Nov-18 12:30N 44°44' E 037°48'0 0.0
2017-Nov-18 12:00N 44°44' E 037°48'0 0.0
2017-Nov-18 11:30N 44°44' E 037°48'0 0.0
2017-Nov-18 11:00N 44°44' E 037°48'0 0.0
2017-Nov-18 10:30N 44°44' E 037°48'0 0.0
2017-Nov-18 10:00N 44°44' E 037°48'0 0.0
2017-Nov-18 09:24N 44°44' E 037°48'0 0.0
2017-Nov-18 09:00N 44°44' E 037°48'0 0.0
2017-Nov-18 08:30N 44°44' E 037°48'0 0.0
2017-Nov-18 08:00N 44°44' E 037°48'0 0.0
2017-Nov-18 07:30N 44°44' E 037°48'0 0.0
2017-Nov-18 07:00N 44°44' E 037°48'0 0.0
2017-Nov-18 06:30N 44°44' E 037°48'0 0.0
2017-Nov-18 06:00N 44°44' E 037°48'0 0.0
2017-Nov-18 05:30N 44°44' E 037°48'0 0.0
2017-Nov-18 05:00N 44°44' E 037°48'0 0.0
2017-Nov-18 04:30N 44°44' E 037°48'0 0.0
2017-Nov-18 04:00N 44°44' E 037°48'0 0.0
2017-Nov-18 03:30N 44°44' E 037°48'0 0.0
2017-Nov-18 03:00N 44°44' E 037°48'0 0.0
2017-Nov-18 02:30N 44°44' E 037°48'0 0.0
2017-Nov-18 02:00N 44°44' E 037°48'0 0.0
2017-Nov-18 01:30N 44°44' E 037°48'0 0.0
2017-Nov-18 01:00N 44°44' E 037°48'0 0.0
2017-Nov-18 00:30N 44°44' E 037°48'0 0.0
2017-Nov-18 00:00N 44°44' E 037°48'0 0.0
2017-Nov-17 23:30N 44°44' E 037°48'0 0.0
2017-Nov-17 23:00N 44°44' E 037°48'0 0.0
2017-Nov-17 22:30N 44°44' E 037°48'0 0.0
2017-Nov-17 22:00N 44°44' E 037°48'0 0.0
2017-Nov-17 21:30N 44°44' E 037°48'0 0.0
2017-Nov-17 21:00N 44°44' E 037°48'0 0.0
2017-Nov-17 20:30N 44°44' E 037°48'0 0.0
2017-Nov-17 20:00N 44°44' E 037°48'0 0.0
2017-Nov-17 19:30N 44°44' E 037°48'0 0.0
2017-Nov-17 19:00N 44°44' E 037°48'0 0.0
2017-Nov-17 18:30N 44°44' E 037°48'0 0.0
2017-Nov-17 18:00N 44°44' E 037°48'0 0.0
2017-Nov-17 17:30N 44°44' E 037°48'0 0.0
2017-Nov-17 17:00N 44°44' E 037°48'0 0.0
2017-Nov-17 16:30N 44°44' E 037°48'0 0.0
2017-Nov-17 16:00N 44°44' E 037°48'0 0.0
2017-Nov-17 15:30N 44°44' E 037°48'0 0.0
2017-Nov-17 13:15N 44°44' E 037°48'0 0.0
2017-Nov-17 13:00N 44°44' E 037°48'0 0.0
2017-Nov-17 12:30N 44°44' E 037°48'0 0.1
2017-Nov-17 12:00N 44°44' E 037°48'0 0.0
2017-Nov-17 11:30N 44°44' E 037°48'0 0.0
2017-Nov-17 11:00N 44°44' E 037°48'0 0.0
2017-Nov-17 10:30N 44°44' E 037°48'0 0.0
2017-Nov-17 10:00N 44°44' E 037°48'0 0.0
2017-Nov-17 09:30N 44°44' E 037°48'0 0.0
2017-Nov-17 09:00N 44°44' E 037°48'0 0.0
2017-Nov-17 08:30N 44°44' E 037°48'0 0.0
2017-Nov-17 08:00N 44°44' E 037°48'0 0.0
2017-Nov-17 07:30N 44°44' E 037°48'0 0.0
2017-Nov-17 07:00N 44°44' E 037°48'0 0.0
2017-Nov-17 06:30N 44°44' E 037°48'0 0.0
2017-Nov-16 21:54N 44°44' E 037°48'0 0.0
2017-Nov-16 21:30N 44°44' E 037°48'0 0.0
2017-Nov-16 21:00N 44°44' E 037°48'0 0.0
2017-Nov-16 20:30N 44°44' E 037°48'0 0.0
2017-Nov-16 19:45N 44°44' E 037°48'0 0.0
2017-Nov-16 19:30N 44°44' E 037°48'0 0.0
2017-Nov-16 19:00N 44°44' E 037°48'0 0.0
2017-Nov-16 18:30N 44°44' E 037°48'0 0.0
2017-Nov-16 18:00N 44°44' E 037°48'0 0.0
2017-Nov-16 17:30N 44°44' E 037°48'0 0.0
2017-Nov-16 17:00N 44°44' E 037°48'0 0.0
2017-Nov-16 16:30N 44°44' E 037°48'0 0.0
2017-Nov-16 16:00N 44°44' E 037°48'0 0.0
2017-Nov-16 15:30N 44°44' E 037°48'0 0.0
2017-Nov-16 15:00N 44°44' E 037°48'0 0.0
2017-Nov-16 14:30N 44°44' E 037°48'0 0.0
2017-Nov-16 14:00N 44°44' E 037°48'0 0.0
2017-Nov-16 13:30N 44°44' E 037°48'0 0.0
2017-Nov-16 03:42N 44°44' E 037°48'0 0.0
2017-Nov-16 03:30N 44°44' E 037°48'0 0.0
2017-Nov-16 03:00N 44°44' E 037°48'0 0.0
2017-Nov-16 02:30N 44°44' E 037°48'0 0.0
2017-Nov-16 02:00N 44°44' E 037°48'0 0.0
2017-Nov-16 01:30N 44°44' E 037°48'0 0.0
2017-Nov-16 01:00N 44°44' E 037°48'0 0.0
2017-Nov-16 00:30N 44°44' E 037°48'0 0.0
2017-Nov-16 00:00N 44°44' E 037°48'0 0.0
2017-Nov-15 23:30N 44°44' E 037°48'0 0.0
2017-Nov-15 23:00N 44°44' E 037°48'0 0.0
2017-Nov-15 22:30N 44°44' E 037°48'0 0.0
2017-Nov-15 22:00N 44°44' E 037°48'0 0.0
2017-Nov-15 21:30N 44°44' E 037°48'0 0.0
2017-Nov-15 21:00N 44°44' E 037°48'0 0.0
2017-Nov-15 20:30N 44°44' E 037°48'0 0.0
2017-Nov-15 20:00N 44°44' E 037°48'0 0.0
2017-Nov-15 19:27N 44°44' E 037°48'0 0.0
2017-Nov-15 19:00N 44°44' E 037°48'0 0.0
2017-Nov-15 18:30N 44°44' E 037°48'0 0.0
2017-Nov-15 18:00N 44°44' E 037°48'0 0.0
2017-Nov-15 17:30N 44°44' E 037°48'0 0.0
2017-Nov-15 17:00N 44°44' E 037°48'0 0.0
2017-Nov-15 16:31N 44°44' E 037°48'1 1.9
2017-Nov-15 16:00N 44°43' E 037°48'2 4.7
2017-Nov-15 15:31N 44°41' E 037°50'2 3.8
2017-Nov-15 15:01N 44°39' E 037°51'8 7.7
2017-Nov-15 13:58N 44°31' E 037°48'1022.8
2017-Nov-15 13:31N 44°35' E 038°01'2141.8
2017-Nov-15 13:00N 44°22' E 037°38'3 5.7
2017-Nov-15 12:30N 44°20' E 037°35'0 0.1
2017-Nov-15 12:00N 44°20' E 037°35'0 0.3
2017-Nov-15 11:30N 44°20' E 037°35'0 0.2
2017-Nov-15 11:00N 44°21' E 037°35'0 0.9
2017-Nov-15 10:30N 44°21' E 037°35'0 0.9
2017-Nov-15 10:00N 44°21' E 037°35'0 0.9
2017-Nov-15 09:30N 44°22' E 037°36'0 0.9
2017-Nov-15 09:00N 44°22' E 037°36'1 1.2
2017-Nov-15 08:30N 44°23' E 037°36'1 1.2
2017-Nov-15 08:00N 44°23' E 037°37'1 1.1
2017-Nov-15 07:30N 44°24' E 037°37'  

Dump ship's entire track history